Terminal Aerodrome Forecast
Issued by NWS

Home | Current Version | Previous Version | Text Only | Print | Product List | Glossary On
Versions: 1 2 3 4 5 6 7 8 9 10 11 12 13 14
000
FTUS45 KGJT 260526
TAFMTJ
TAF
KMTJ 260526Z 2606/2706 14005KT P6SM FEW120 BKN180
     FM261400 14004KT P6SM BKN250
     FM262000 33007KT P6SM FEW120 SCT150
     FM262300 28007KT P6SM SCT250
     FM270200 13005KT P6SM SCT200=

USA.gov is the U.S. government's official web portal to all federal, state and local government web resources and services.